Billings, MT

6:03 PM MDT on June 02, 2015 (GMT -0600)
Billings Logan International | | Change Station
CLOSE
Current Station
Airport
Location: Billings,
Elevation: 3570 ft
Nearby Weather Stations

Elev 3570 ft 45.81 °N, 108.54 °W | Updated 10 minutes ago

Partly Cloudy
Partly Cloudy
68 °F
Feels Like 68 °F
N
16
Wind Variable Wind from ENE

Today
High -- | Low -- °F
--% Chance of Precip.
Yesterday
High -- | Low -- °F
Precip. -- in
5:27 AM 8:57 PM
Full, 100% visible
Pressure 29.82 in
Visibility 10.0 miles
Clouds Scattered Clouds 3000 ft
Scattered Clouds 18000 ft
Dew Point 54 °F
Humidity 61%
Rainfall 0.07 in
Snow Depth Not available.
UV 3 out of 12
Pollen 6.40 out of 12
Air Quality Not available.
Flu Activity Sporadic
METAR KBIL 022353Z 07014KT 10SM SCT030 SCT180 20/12 A2987 RMK AO2 SLP097 OCNL LTG DSNT SE NW CB DSNT E-SE NW 60007 T02000122 10228 20161 55007

More Conditions Fewer Conditions

Pressure 29.82 in
Visibility 10.0 miles
Clouds Scattered Clouds 3000 ft
Scattered Clouds 18000 ft
Dew Point 54 °F
Humidity 61%
Rainfall 0.07 in
Snow Depth Not available.
UV 3 out of 12
Pollen 6.40 out of 12
Air Quality Not available.
Flu Activity Sporadic
METAR KBIL 022353Z 07014KT 10SM SCT030 SCT180 20/12 A2987 RMK AO2 SLP097 OCNL LTG DSNT SE NW CB DSNT E-SE NW 60007 T02000122 10228 20161 55007

More Conditions Fewer Conditions

10-Day Weather Forecast

×

Almanac

Astronomy

Jun. 02, 2015 Rise Set
Actual Time
Civil Twilight
Nautical Twilight
Astronomical Twilight
Moon
Length of Visible Light
Length of Day
Tomorrow will be .
, % of the Moon is Illuminated

Today's Extremes

State Highs State Lows

Community

WunderPhotos

Upload Photos

1,826,063 photos uploaded!

WunderBlogs® & News

Nearby

Air Quality

  Air Quality AQ Index Pollutant
Not available.

Snow Depth

Station Depth Elevation

Earthquake Activity

City Distance Mag. Time & Date
Minimum magnitude displayed is 2.5.

Coastal Water Temperatures

Place Temperature

Stations

Nearby Weather Stations

Station Location Temp. Windchill Dew Point Humidity Wind Precip. Elev Updated Type